Flight Track Log - Related Links

Times and Time Zones

All times are in EDT time to prevent confusion due to time zone crossing. See the N44566 flight status page for this flight to view local times or setup timezone preferences in your user account.

Time Position Orientation Groundspeed Altitude Reporting Facility
EDT Latitude Longitude Course Direction KTS MPH feet Rate Location/Type
Fri 07:15:03 PM 39.6619 -74.1067 29° Northeast 86 99 7,700  Level New York Center
Fri 07:16:00 PM 39.6833 -74.0914 29° Northeast 86 99 7,600 -51 Descending New York Center
Fri 07:17:01 PM 39.7047 -74.0736 33° Northeast 93 107 7,600  Level New York Center
Fri 07:18:00 PM 39.7261 -74.0503 40° Northeast 88 101 7,600 50 Level New York Center
Fri 07:19:01 PM 39.7436 -74.0294 42° Northeast 83 96 7,700 50 Climbing New York Center
Fri 07:19:59 PM 39.7628 -74.0114 36° Northeast 83 96 7,700  Level New York Center
Fri 07:21:01 PM 39.7839 -73.9989 24° Northeast 88 101 7,700 -50 Level New York Center
Fri 07:21:59 PM 39.8053 -73.9836 29° Northeast 88 101 7,600 -50 Descending New York Center
Fri 07:23:02 PM 39.8286 -73.9686 26° Northeast 88 101 7,600 50 Level New York Center
Fri 07:23:59 PM 39.8519 -73.9533 27° Northeast 88 101 7,700 50 Climbing New York Center
Fri 07:25:01 PM 39.8711 -73.9328 39° Northeast 88 101 7,700 -50 Level New York Center
Fri 07:26:00 PM 39.8906 -73.9147 35° Northeast 88 101 7,600 -50 Descending New York Center
Fri 07:27:00 PM 39.9078 -73.8856 52° Northeast 88 101 7,600 50 Level New York Center
Fri 07:28:01 PM 39.9253 -73.8619 46° Northeast 88 101 7,700  Climbing New York Center
Fri 07:28:59 PM 39.9425 -73.8411 43° Northeast 88 101 7,600 -50 Descending New York Center
Fri 07:30:00 PM 39.9636 -73.8311 20° North 83 96 7,600  Level New York Center
Fri 07:31:01 PM 39.9867 -73.8214 18° North 83 96 7,600  Level New York Center
Fri 07:32:02 PM 40.0100 -73.8061 27° Northeast 83 96 7,600  Level New York Center
Fri 07:33:00 PM 40.0272 -73.7881 39° Northeast 83 96 7,600  Level New York Center
Fri 07:34:02 PM 40.0506 -73.7728 27° Northeast 83 96 7,600  Level New York Center
Fri 07:35:00 PM 40.0675 -73.7544 40° Northeast 83 96 7,600  Level New York Center
Fri 07:36:01 PM 40.0931 -73.7339 32° Northeast 83 96 7,600  Level New York Center
Fri 07:37:02 PM 40.1122 -73.7211 27° Northeast 83 96 7,600 -52 Level New York Center
Fri 07:37:56 PM 40.1333 -73.7167 North 84 97 7,500  Descending New York TRACON
Fri 07:38:56 PM 40.1500 -73.7000 37° Northeast 90 104 7,600 100 Climbing New York TRACON
Fri 07:39:56 PM 40.1833 -73.7000 360° North 88 101 7,700 50 Climbing New York TRACON
Fri 07:40:56 PM 40.2000 -73.6833 37° Northeast 87 100 7,700  Level New York TRACON
Fri 07:41:56 PM 40.2167 -73.6500 57° Northeast 98 113 7,700 -48 Level New York TRACON
Fri 07:43:02 PM 40.2500 -73.6333 21° North 98 113 7,600 50 Descending New York TRACON
Fri 07:43:56 PM 40.2667 -73.6167 37° Northeast 89 102 7,800 53 Climbing New York TRACON
Fri 07:44:56 PM 40.2833 -73.6167 360° North 93 107 7,700 -50 Descending New York TRACON
Fri 07:45:56 PM 40.3167 -73.6000 21° North 94 108 7,700  Level New York TRACON
Fri 07:46:56 PM 40.3333 -73.5833 37° Northeast 91 105 7,700  Level New York TRACON
Fri 07:47:56 PM 40.3500 -73.5500 57° Northeast 95 109 7,700 50 Level New York TRACON
Fri 07:48:56 PM 40.3667 -73.5333 37° Northeast 92 106 7,800 100 Climbing New York TRACON
Fri 07:49:56 PM 40.3833 -73.5000 57° Northeast 97 112 7,900  Climbing New York TRACON
Fri 07:50:50 PM 40.3833 -73.4667 90° East 99 114 7,800 -100 Descending New York TRACON
Fri 07:51:56 PM 40.4167 -73.4500 21° North 96 110 7,700 -95 Descending New York TRACON
Fri 07:52:56 PM 40.4167 -73.4167 90° East 103 119 7,600 -50 Descending New York TRACON
Fri 07:53:56 PM 40.4333 -73.3833 57° Northeast 98 113 7,600  Level New York TRACON
Fri 07:54:50 PM 40.4500 -73.3667 37° Northeast 95 109 7,600 50 Level New York TRACON
Fri 07:55:56 PM 40.4667 -73.3333 57° Northeast 90 104 7,700 95 Climbing New York TRACON
Fri 07:56:56 PM 40.4833 -73.3333 360° North 79 91 7,800 -400 Climbing New York TRACON
Fri 07:57:56 PM 40.5000 -73.3333 360° North 88 101 6,900 -1,100 Descending New York TRACON
Fri 07:58:56 PM 40.5167 -73.2833 66° East 106 122 5,600 -1,300 Descending New York TRACON
Fri 07:59:56 PM 40.5333 -73.2667 37° Northeast 105 121 4,300 -1,300 Descending New York TRACON
Fri 08:01:00 PM 40.5580 -73.2851 330° Northwest  Level Estimated
Fri 08:08:00 PM 40.7197 -73.4066 330° Northwest  Level Estimated
Fri 08:09:00 PM 40.7288 -73.4134 121° Southeast  Level Estimated
Fri 08:10:00 PM 40.7288 -73.4134 140° Southeast  Level Estimated
Fri 08:11:00 PM 40.7288 -73.4134 30° Northeast  Level Estimated
Fri 08:12:00 PM 40.7288 -73.4134 140° Southeast  Level Estimated

Login

Don't have an account? Register now (free) for customized features, flight alerts, and more!